Terminal Aerodrome Forecast
Issued by NWS

Home | Current Version | Previous Version | Text Only | Print | Product List | Glossary On
Versions: 1 2 3 4 5 6 7 8 9 10 11 12 13 14 15 16
479
FTUS43 KILX 050530
TAFCMI
TAF
KCMI 050530Z 0506/0606 25007KT P6SM BKN006 OVC015
     FM051100 24007KT 1/2SM FZFG BKN003
     FM051600 17007KT 4SM BR BKN006
     FM051800 16008KT P6SM SCT025=

USA.gov is the U.S. government's official web portal to all federal, state and local government web resources and services.